createdAt,value
2018-10-16T00:04:18.697Z,11.20
2018-10-16T00:14:21.966Z,10.80
2018-10-16T00:24:25.614Z,11.63
2018-10-16T00:34:28.874Z,11.40
2018-10-16T00:44:32.124Z,11.10
2018-10-16T00:54:35.372Z,11.20
2018-10-16T01:04:38.601Z,10.80
2018-10-16T01:14:41.828Z,11.63
2018-10-16T01:24:45.104Z,11.20
2018-10-16T01:34:48.320Z,11.97
2018-10-16T01:44:51.584Z,11.60
2018-10-16T01:54:55.657Z,11.03
2018-10-16T02:04:58.964Z,10.93
2018-10-16T02:15:02.241Z,11.73
2018-10-16T02:25:05.504Z,11.57
2018-10-16T02:35:09.821Z,11.23
2018-10-16T02:45:13.084Z,10.90
2018-10-16T02:55:16.312Z,11.43
2018-10-16T03:05:19.537Z,11.83
2018-10-16T03:15:22.766Z,12.37
2018-10-16T03:25:25.976Z,11.67
2018-10-16T03:35:29.876Z,11.60
2018-10-16T03:45:33.478Z,11.83
2018-10-16T03:55:36.705Z,11.37
2018-10-16T04:05:40.143Z,12.23
2018-10-16T04:15:43.353Z,11.47
2018-10-16T04:25:46.579Z,11.13
2018-10-16T04:35:50.244Z,11.33
2018-10-16T04:45:53.667Z,11.93
2018-10-16T04:55:56.903Z,12.03
2018-10-16T05:06:00.176Z,12.00
2018-10-16T05:16:04.192Z,13.47
2018-10-16T05:26:07.481Z,13.17
2018-10-16T05:36:11.370Z,13.77
2018-10-16T05:46:14.620Z,13.00
2018-10-16T05:56:18.183Z,13.37
2018-10-16T06:06:21.506Z,12.43
2018-10-16T06:16:24.749Z,13.13
2018-10-16T06:26:28.002Z,13.93
2018-10-16T06:36:31.238Z,12.83
2018-10-16T06:46:34.848Z,14.70
2018-10-16T06:56:38.029Z,15.00
2018-10-16T07:06:41.853Z,16.40
2018-10-16T07:16:45.098Z,15.77
2018-10-16T07:26:48.378Z,18.40
2018-10-16T07:36:51.663Z,18.30
2018-10-16T07:46:55.021Z,17.23
2018-10-16T07:56:58.341Z,17.67
2018-10-16T08:07:01.561Z,16.97
2018-10-16T08:17:05.401Z,16.77
2018-10-16T08:27:08.621Z,17.40
2018-10-16T08:37:13.294Z,17.07
2018-10-16T08:49:33.433Z,19.70
2018-10-16T08:59:37.021Z,17.37
2018-10-16T09:09:40.644Z,17.90
2018-10-16T09:19:44.244Z,18.00
2018-10-16T09:29:47.568Z,17.17
2018-10-16T09:39:51.084Z,16.13
2018-10-16T09:49:54.812Z,16.50
2018-10-16T09:59:58.215Z,15.50
2018-10-16T10:10:01.596Z,15.50
2018-10-16T10:20:05.176Z,15.03
2018-10-16T10:30:11.384Z,12.80
2018-10-16T10:40:16.104Z,13.10
2018-10-16T10:50:19.738Z,11.70
2018-10-16T11:00:22.936Z,12.53
2018-10-16T11:10:26.738Z,12.50
2018-10-16T11:20:30.151Z,9.30
2018-10-16T11:30:33.553Z,10.57
2018-10-16T11:40:36.847Z,9.20
2018-10-16T11:50:40.192Z,9.00
2018-10-16T12:00:43.538Z,10.00
2018-10-16T12:10:46.944Z,10.17
2018-10-16T12:20:59.761Z,7.67
2018-10-16T12:31:03.088Z,8.27
2018-10-16T12:41:06.404Z,8.33
2018-10-16T12:51:09.747Z,8.30
2018-10-16T13:01:12.907Z,8.07
2018-10-16T13:11:16.209Z,8.20
2018-10-16T13:21:19.395Z,8.30
2018-10-16T13:31:22.623Z,7.80
2018-10-16T13:41:26.007Z,7.83
2018-10-16T13:51:29.245Z,7.43
2018-10-16T14:01:32.481Z,7.77
2018-10-16T14:11:35.824Z,7.57
2018-10-16T14:21:39.239Z,6.87
2018-10-16T14:31:42.547Z,7.57
2018-10-16T14:41:45.772Z,8.27
2018-10-16T14:51:49.068Z,7.07
2018-10-16T15:01:52.324Z,8.00
2018-10-16T15:11:55.765Z,7.33
2018-10-16T15:21:59.045Z,7.73
2018-10-16T15:32:02.309Z,8.67
2018-10-16T15:42:05.919Z,7.80
2018-10-16T15:52:10.933Z,9.00
2018-10-16T16:02:14.324Z,7.73
2018-10-16T16:12:17.625Z,8.27
2018-10-16T16:22:20.937Z,8.47
2018-10-16T16:32:24.297Z,7.43
2018-10-16T16:42:27.687Z,7.73
2018-10-16T16:52:31.032Z,8.10
2018-10-16T17:02:34.349Z,8.03
2018-10-16T17:12:38.275Z,5.93
2018-10-16T17:22:41.632Z,6.67
2018-10-16T17:32:45.156Z,6.90
2018-10-16T17:42:48.607Z,5.40
2018-10-16T17:52:51.945Z,6.30
2018-10-16T18:02:55.378Z,6.77
2018-10-16T18:12:58.652Z,6.53
2018-10-16T18:23:02.014Z,8.13
2018-10-16T18:33:05.737Z,8.70
2018-10-16T18:43:08.984Z,8.00
2018-10-16T18:53:12.392Z,8.70
2018-10-16T19:03:15.696Z,9.60
2018-10-16T19:13:19.027Z,10.40
2018-10-16T19:23:22.369Z,9.30
2018-10-16T19:33:26.063Z,10.27
2018-10-16T19:43:29.353Z,9.63
2018-10-16T19:53:32.704Z,10.03
2018-10-16T20:03:36.061Z,10.60
2018-10-16T20:13:39.388Z,11.53
2018-10-16T20:23:42.728Z,10.60
2018-10-16T20:33:46.707Z,11.43
2018-10-16T20:43:50.051Z,11.30
2018-10-16T20:53:53.409Z,11.70
2018-10-16T21:03:56.748Z,11.33
2018-10-16T21:13:59.996Z,11.27
2018-10-16T21:24:03.420Z,11.80
2018-10-16T21:34:06.864Z,11.77
2018-10-16T21:44:10.098Z,12.20
2018-10-16T21:54:13.312Z,13.00
2018-10-16T22:04:16.520Z,13.80
2018-10-16T22:14:19.735Z,13.80
2018-10-16T22:24:22.980Z,14.20
2018-10-16T22:34:26.217Z,15.30
2018-10-16T22:44:29.496Z,14.63
2018-10-16T22:54:32.708Z,15.23
2018-10-16T23:04:35.940Z,16.40
2018-10-16T23:14:39.155Z,16.53
2018-10-16T23:24:42.439Z,18.67
2018-10-16T23:34:45.702Z,16.93
2018-10-16T23:44:48.927Z,17.57
2018-10-16T23:54:52.509Z,17.47
